createdAt,value
2022-11-07T00:02:17.400Z,100645.41
2022-11-07T00:04:48.381Z,100637.50
2022-11-07T00:07:19.145Z,100634.69
2022-11-07T00:09:49.802Z,100630.09
2022-11-07T00:12:20.463Z,100630.96
2022-11-07T00:14:51.129Z,100623.02
2022-11-07T00:17:21.804Z,100626.39
2022-11-07T00:19:52.487Z,100617.93
2022-11-07T00:22:23.257Z,100613.52
2022-11-07T00:24:53.929Z,100605.59
2022-11-07T00:27:24.656Z,100605.91
2022-11-07T00:29:55.566Z,100601.15
2022-11-07T00:32:26.305Z,100595.83
2022-11-07T00:34:57.043Z,100589.13
2022-11-07T00:37:27.685Z,100592.48
2022-11-07T00:39:58.330Z,100581.55
2022-11-07T00:42:29.455Z,100580.68
2022-11-07T00:45:00.123Z,100574.54
2022-11-07T00:47:30.826Z,100567.09
2022-11-07T00:50:01.568Z,100562.88
2022-11-07T00:52:32.682Z,100558.49
2022-11-07T00:55:03.337Z,100559.02
2022-11-07T00:57:34.691Z,100555.52
2022-11-07T01:00:06.439Z,100555.68
2022-11-07T01:02:37.114Z,100553.40
2022-11-07T01:05:13.049Z,100551.77
2022-11-07T01:07:43.700Z,100553.02
2022-11-07T01:10:14.366Z,100554.59
2022-11-07T01:12:45.014Z,100556.35
2022-11-07T01:15:15.989Z,100558.61
2022-11-07T01:17:46.712Z,100559.32
2022-11-07T01:20:17.594Z,100559.30
2022-11-07T01:22:49.734Z,100559.98
2022-11-07T01:25:20.594Z,100562.43
2022-11-07T01:27:51.276Z,100557.96
2022-11-07T01:30:22.351Z,100556.77
2022-11-07T01:32:53.080Z,100553.61
2022-11-07T01:35:23.760Z,100554.46
2022-11-07T01:37:54.459Z,100551.96
2022-11-07T01:40:25.156Z,100550.68
2022-11-07T01:42:56.036Z,100548.57
2022-11-07T01:45:28.818Z,100546.63
2022-11-07T01:48:03.442Z,100545.57
2022-11-07T01:50:34.145Z,100544.87
2022-11-07T01:53:04.838Z,100539.42
2022-11-07T01:55:38.088Z,100539.45
2022-11-07T01:58:11.265Z,100539.23
2022-11-07T02:00:42.417Z,100540.27
2022-11-07T02:03:18.415Z,100538.19
2022-11-07T02:05:53.828Z,100539.23
2022-11-07T02:08:25.379Z,100530.92
2022-11-07T02:11:00.112Z,100527.56
2022-11-07T02:13:33.115Z,100521.06
2022-11-07T02:16:06.059Z,100518.04
2022-11-07T02:18:38.588Z,100510.48
2022-11-07T02:21:15.354Z,100507.28
2022-11-07T02:23:52.965Z,100506.92
2022-11-07T02:26:25.321Z,100501.23
2022-11-07T02:28:58.505Z,100496.45
2022-11-07T02:31:29.201Z,100486.61
2022-11-07T02:33:59.821Z,100474.77
2022-11-07T02:36:30.721Z,100470.43
2022-11-07T02:39:02.299Z,100461.85
2022-11-07T02:41:35.861Z,100451.59
2022-11-07T02:44:11.403Z,100457.05
2022-11-07T02:46:42.775Z,100458.47
2022-11-07T02:49:13.681Z,100453.61
2022-11-07T02:51:44.327Z,100446.81
2022-11-07T02:54:14.983Z,100445.09
2022-11-07T02:56:45.663Z,100443.91
2022-11-07T02:59:16.354Z,100442.17
2022-11-07T03:01:54.316Z,100436.73
2022-11-07T03:04:26.136Z,100439.90
2022-11-07T03:06:56.967Z,100436.89
2022-11-07T03:09:27.661Z,100434.42
2022-11-07T03:11:58.331Z,100426.84
2022-11-07T03:14:29.013Z,100422.77
2022-11-07T03:16:59.680Z,100418.83
2022-11-07T03:19:30.506Z,100418.11
2022-11-07T03:22:01.277Z,100414.80
2022-11-07T03:24:32.735Z,100414.45
2022-11-07T03:27:03.430Z,100409.68
2022-11-07T03:29:34.101Z,100405.79
2022-11-07T03:32:04.944Z,100408.59
2022-11-07T03:34:35.676Z,100408.74
2022-11-07T03:37:06.382Z,100414.77
2022-11-07T03:39:37.047Z,100415.44
2022-11-07T03:42:08.261Z,100417.29
2022-11-07T03:44:38.919Z,100418.13
2022-11-07T03:47:09.645Z,100415.63
2022-11-07T03:49:40.401Z,100413.83
2022-11-07T03:52:11.064Z,100413.44
2022-11-07T03:54:41.726Z,100413.77
2022-11-07T03:57:12.419Z,100409.67
2022-11-07T03:59:43.155Z,100406.84
2022-11-07T04:02:14.013Z,100407.70
2022-11-07T04:04:44.827Z,100402.91
2022-11-07T04:07:15.983Z,100401.68
2022-11-07T04:09:46.715Z,100403.05
2022-11-07T04:12:35.240Z,100405.59
2022-11-07T04:15:24.284Z,100406.35
2022-11-07T04:17:54.977Z,100409.09
2022-11-07T04:20:26.089Z,100405.55
2022-11-07T04:22:56.751Z,100400.59
2022-11-07T04:25:41.380Z,100403.38
2022-11-07T04:28:12.094Z,100405.44
2022-11-07T04:30:42.953Z,100402.08
2022-11-07T04:33:13.933Z,100399.23
2022-11-07T04:35:44.922Z,100396.04
2022-11-07T04:38:15.857Z,100392.88
2022-11-07T04:40:46.539Z,100394.64
2022-11-07T04:43:17.470Z,100396.42
2022-11-07T04:45:48.408Z,100391.45
2022-11-07T04:48:19.952Z,100387.92
2022-11-07T04:50:51.135Z,100380.66
2022-11-07T04:53:21.833Z,100377.23
2022-11-07T04:55:52.569Z,100379.50
2022-11-07T04:58:23.306Z,100375.21
2022-11-07T05:00:53.925Z,100361.73
2022-11-07T05:03:24.568Z,100359.45
2022-11-07T05:05:55.312Z,100360.19
2022-11-07T05:08:26.048Z,100360.32
2022-11-07T05:10:56.682Z,100362.17
2022-11-07T05:13:27.349Z,100355.80
2022-11-07T05:15:58.872Z,100354.14
2022-11-07T05:18:29.554Z,100352.89
2022-11-07T05:21:00.189Z,100349.36
2022-11-07T05:23:30.919Z,100357.58
2022-11-07T05:26:01.572Z,100347.98
2022-11-07T05:28:39.300Z,100351.12
2022-11-07T05:31:15.536Z,100350.90
2022-11-07T05:33:46.304Z,100344.53
2022-11-07T05:36:19.256Z,100344.52
2022-11-07T05:38:51.675Z,100347.68
2022-11-07T05:41:23.631Z,100341.98
2022-11-07T05:43:54.367Z,100340.52
2022-11-07T05:46:25.006Z,100338.52
2022-11-07T05:49:00.714Z,100340.41
2022-11-07T05:51:32.001Z,100328.34
2022-11-07T05:54:02.739Z,100332.88
2022-11-07T05:56:33.415Z,100344.63
2022-11-07T05:59:04.910Z,100342.46
2022-11-07T06:01:35.663Z,100348.45
2022-11-07T06:04:08.153Z,100350.21
2022-11-07T06:06:38.875Z,100348.21
2022-11-07T06:09:09.588Z,100347.59
2022-11-07T06:11:40.263Z,100356.13
2022-11-07T06:14:10.968Z,100357.27
2022-11-07T06:16:41.616Z,100358.99
2022-11-07T06:19:12.276Z,100360.70
2022-11-07T06:21:42.928Z,100360.84
2022-11-07T06:24:15.500Z,100361.13
2022-11-07T06:26:46.428Z,100360.00
2022-11-07T06:29:17.165Z,100357.15
2022-11-07T06:31:47.830Z,100372.26
2022-11-07T06:34:18.476Z,100370.38
2022-11-07T06:37:01.583Z,100372.77
2022-11-07T06:39:33.483Z,100367.08
2022-11-07T06:42:04.134Z,100361.09
2022-11-07T06:44:34.803Z,100364.93
2022-11-07T06:47:05.875Z,100365.05
2022-11-07T06:49:36.542Z,100362.16
2022-11-07T06:52:07.553Z,100361.25
2022-11-07T06:54:38.502Z,100363.39
2022-11-07T06:57:09.223Z,100361.15
2022-11-07T06:59:39.876Z,100357.02
2022-11-07T07:02:26.018Z,100364.91
2022-11-07T07:05:05.468Z,100366.02
2022-11-07T07:07:36.112Z,100370.02
2022-11-07T07:10:08.531Z,100372.98
2022-11-07T07:12:39.266Z,100366.89
2022-11-07T07:15:11.624Z,100367.48
2022-11-07T07:17:42.377Z,100367.25
2022-11-07T07:20:14.508Z,100364.20
2022-11-07T07:22:49.203Z,100362.16
2022-11-07T07:25:24.272Z,100364.63
2022-11-07T07:27:55.161Z,100360.46
2022-11-07T07:30:25.880Z,100361.11
2022-11-07T07:32:56.528Z,100365.25
2022-11-07T07:35:27.255Z,100363.94
2022-11-07T07:37:58.097Z,100361.74
2022-11-07T07:40:28.902Z,100360.32
2022-11-07T07:42:59.619Z,100359.27
2022-11-07T07:45:30.347Z,100352.39
2022-11-07T07:48:03.743Z,100355.84
2022-11-07T07:50:34.536Z,100350.11
2022-11-07T07:53:09.024Z,100351.42
2022-11-07T07:55:40.311Z,100349.77
2022-11-07T07:58:11.228Z,100349.70
2022-11-07T08:00:42.917Z,100352.73
2022-11-07T08:03:14.996Z,100352.73
2022-11-07T08:05:46.208Z,100349.51
2022-11-07T08:08:16.866Z,100347.66
2022-11-07T08:10:53.538Z,100353.33
2022-11-07T08:13:26.767Z,100348.77
2022-11-07T08:15:57.769Z,100348.59
2022-11-07T08:18:29.763Z,100350.71
2022-11-07T08:21:00.436Z,100347.45
2022-11-07T08:23:31.879Z,100345.40
2022-11-07T08:26:04.762Z,100346.35
2022-11-07T08:28:37.687Z,100346.80
2022-11-07T08:31:11.939Z,100343.56
2022-11-07T08:33:42.804Z,100338.80
2022-11-07T08:36:13.866Z,100340.20
2022-11-07T08:38:44.573Z,100338.13
2022-11-07T08:41:19.579Z,100338.38
2022-11-07T08:43:52.623Z,100339.19
2022-11-07T08:46:23.536Z,100341.20
2022-11-07T08:48:54.209Z,100336.49
2022-11-07T08:51:24.958Z,100334.17
2022-11-07T08:53:55.581Z,100338.19
2022-11-07T08:56:26.221Z,100336.14
2022-11-07T08:58:56.873Z,100332.92
2022-11-07T09:01:27.768Z,100333.17
2022-11-07T09:03:58.962Z,100328.35
2022-11-07T09:06:29.820Z,100326.44
2022-11-07T09:09:00.625Z,100321.04
2022-11-07T09:11:31.346Z,100319.91
2022-11-07T09:14:01.998Z,100318.59
2022-11-07T09:16:32.673Z,100312.80
2022-11-07T09:19:03.468Z,100314.48
2022-11-07T09:21:34.129Z,100311.79
2022-11-07T09:24:05.478Z,100310.75
2022-11-07T09:26:36.907Z,100310.02
2022-11-07T09:29:07.646Z,100309.55
2022-11-07T09:31:38.380Z,100311.05
2022-11-07T09:34:09.094Z,100309.02
2022-11-07T09:36:39.771Z,100308.73
2022-11-07T09:39:10.405Z,100308.38
2022-11-07T09:41:53.195Z,100309.05
2022-11-07T09:44:37.719Z,100303.55
2022-11-07T09:47:19.232Z,100306.60
2022-11-07T09:49:52.552Z,100300.74
2022-11-07T09:52:30.014Z,100298.00
2022-11-07T09:55:06.024Z,100299.18
2022-11-07T09:57:38.930Z,100293.59
2022-11-07T10:00:16.427Z,100286.77
2022-11-07T10:02:49.929Z,100287.14
2022-11-07T10:05:31.421Z,100280.52
2022-11-07T10:08:08.173Z,100287.27
2022-11-07T10:10:45.487Z,100281.17
2022-11-07T10:13:42.014Z,100280.13
2022-11-07T10:16:21.448Z,100275.70
2022-11-07T10:19:06.718Z,100278.33
2022-11-07T10:21:46.870Z,100278.27
2022-11-07T10:24:30.769Z,100277.49
2022-11-07T10:27:02.666Z,100276.79
2022-11-07T10:29:44.780Z,100279.23
2022-11-07T10:32:24.162Z,100279.52
2022-11-07T10:35:15.811Z,100275.38
2022-11-07T10:37:54.022Z,100276.09
2022-11-07T10:40:28.438Z,100277.65
2022-11-07T10:42:59.727Z,100277.20
2022-11-07T10:45:31.241Z,100275.16
2022-11-07T10:48:04.385Z,100273.29
2022-11-07T10:50:35.170Z,100268.85
2022-11-07T10:53:09.802Z,100269.58
2022-11-07T10:55:47.607Z,100262.42
2022-11-07T10:58:22.731Z,100256.95
2022-11-07T11:01:06.078Z,100257.44
2022-11-07T11:03:44.918Z,100254.61
2022-11-07T11:06:25.744Z,100258.66
2022-11-07T11:08:56.473Z,100261.98
2022-11-07T11:11:37.472Z,100266.09
2022-11-07T11:14:12.708Z,100263.83
2022-11-07T11:16:44.510Z,100270.70
2022-11-07T11:19:25.193Z,100266.17
2022-11-07T11:21:59.011Z,100267.34
2022-11-07T11:24:38.424Z,100268.39
2022-11-07T11:27:15.146Z,100268.29
2022-11-07T11:29:54.217Z,100273.44
2022-11-07T11:32:30.206Z,100273.18
2022-11-07T11:35:09.498Z,100274.35
2022-11-07T11:37:45.095Z,100280.33
2022-11-07T11:40:20.708Z,100282.49
2022-11-07T11:42:59.043Z,100277.14
2022-11-07T11:45:36.800Z,100276.92
2022-11-07T11:48:13.587Z,100285.63
2022-11-07T11:50:50.765Z,100283.95
2022-11-07T11:53:23.853Z,100283.50
2022-11-07T11:56:04.755Z,100284.02
2022-11-07T11:58:46.566Z,100280.05
2022-11-07T12:01:28.979Z,100285.34
2022-11-07T12:04:25.274Z,100282.89
2022-11-07T12:07:03.351Z,100283.60
2022-11-07T12:09:43.316Z,100283.48
2022-11-07T12:12:34.693Z,100280.94
2022-11-07T12:15:31.735Z,100277.02
2022-11-07T12:18:09.618Z,100281.59
2022-11-07T12:20:52.675Z,100285.46
2022-11-07T12:23:34.569Z,100284.92
2022-11-07T12:26:12.569Z,100279.61
2022-11-07T12:28:55.255Z,100277.94
2022-11-07T12:31:41.663Z,100277.46
2022-11-07T12:34:24.755Z,100278.70
2022-11-07T12:37:08.450Z,100275.88
2022-11-07T12:39:55.135Z,100275.14
2022-11-07T12:42:38.299Z,100278.71
2022-11-07T12:45:23.415Z,100285.05
2022-11-07T12:48:12.828Z,100282.58
2022-11-07T12:50:54.464Z,100286.64
2022-11-07T12:53:38.014Z,100283.41
2022-11-07T12:56:15.320Z,100281.58
2022-11-07T12:58:48.340Z,100284.44
2022-11-07T13:01:29.991Z,100282.69
2022-11-07T13:04:12.102Z,100285.23
2022-11-07T13:06:51.574Z,100283.33
2022-11-07T13:09:29.979Z,100288.31
2022-11-07T13:12:10.048Z,100290.53
2022-11-07T13:14:44.040Z,100292.24
2022-11-07T13:17:21.068Z,100291.77
2022-11-07T13:20:03.670Z,100295.84
2022-11-07T13:22:38.849Z,100296.66
2022-11-07T13:25:24.270Z,100298.67
2022-11-07T13:28:19.601Z,100307.07
2022-11-07T13:30:59.443Z,100301.19
2022-11-07T13:33:33.911Z,100305.55
2022-11-07T13:36:16.565Z,100308.17
2022-11-07T13:38:53.137Z,100315.04
2022-11-07T13:41:24.498Z,100310.63
2022-11-07T13:43:58.925Z,100318.59
2022-11-07T13:46:34.191Z,100315.76
2022-11-07T13:49:12.168Z,100317.33
2022-11-07T13:51:46.171Z,100311.30
2022-11-07T13:54:27.325Z,100312.83
2022-11-07T13:57:02.620Z,100318.81
2022-11-07T13:59:40.158Z,100322.05
2022-11-07T14:02:22.181Z,100320.94
2022-11-07T14:05:15.459Z,100326.95
2022-11-07T14:07:49.844Z,100327.17
2022-11-07T14:10:27.119Z,100329.16
2022-11-07T14:13:04.138Z,100329.67
2022-11-07T14:15:35.554Z,100330.32
2022-11-07T14:18:07.453Z,100333.62
2022-11-07T14:20:38.189Z,100336.18
2022-11-07T14:23:14.921Z,100340.52
2022-11-07T14:25:54.677Z,100337.30
2022-11-07T14:28:26.057Z,100338.41
2022-11-07T14:30:56.733Z,100339.44
2022-11-07T14:33:27.529Z,100337.54
2022-11-07T14:35:58.265Z,100335.01
2022-11-07T14:38:29.006Z,100340.08
2022-11-07T14:41:03.090Z,100340.31
2022-11-07T14:43:35.800Z,100337.67
2022-11-07T14:46:13.680Z,100340.20
2022-11-07T14:48:47.487Z,100345.20
2022-11-07T14:51:22.662Z,100347.96
2022-11-07T14:53:58.205Z,100352.21
2022-11-07T14:56:33.613Z,100358.89
2022-11-07T14:59:04.969Z,100360.99
2022-11-07T15:05:10.905Z,100362.20
2022-11-07T15:07:49.847Z,100367.17
2022-11-07T15:10:30.354Z,100363.71
2022-11-07T15:13:02.770Z,100363.13
2022-11-07T15:15:35.313Z,100363.80
2022-11-07T15:18:08.731Z,100363.20
2022-11-07T15:20:40.863Z,100361.70
2022-11-07T15:23:30.366Z,100362.77
2022-11-07T15:26:10.437Z,100364.17
2022-11-07T15:28:49.572Z,100367.80
2022-11-07T15:31:25.100Z,100371.66
2022-11-07T15:33:57.361Z,100375.55
2022-11-07T15:36:28.305Z,100371.33
2022-11-07T15:39:00.843Z,100372.98
2022-11-07T15:41:31.693Z,100374.20
2022-11-07T15:44:02.873Z,100372.04
2022-11-07T15:46:37.279Z,100372.56
2022-11-07T15:49:11.556Z,100381.67
2022-11-07T15:51:42.153Z,100380.52
2022-11-07T15:54:14.175Z,100384.73
2022-11-07T15:56:44.780Z,100387.36
2022-11-07T15:59:19.804Z,100390.73
2022-11-07T16:01:50.751Z,100388.77
2022-11-07T16:04:21.622Z,100386.96
2022-11-07T16:06:52.278Z,100392.98
2022-11-07T16:09:24.610Z,100393.25
2022-11-07T16:11:55.238Z,100394.11
2022-11-07T16:14:55.936Z,100398.19
2022-11-07T16:17:19.063Z,100395.70
2022-11-07T16:19:49.698Z,100395.80
2022-11-07T16:22:20.375Z,100396.88
2022-11-07T16:24:50.966Z,100407.11
2022-11-07T16:27:21.623Z,100408.40
2022-11-07T16:29:52.314Z,100413.09
2022-11-07T16:32:22.951Z,100413.48
2022-11-07T16:34:53.623Z,100416.41
2022-11-07T16:37:24.214Z,100408.17
2022-11-07T16:39:54.833Z,100411.26
2022-11-07T16:42:25.476Z,100414.47
2022-11-07T16:44:57.504Z,100418.60
2022-11-07T16:47:28.219Z,100416.64
2022-11-07T16:49:59.371Z,100416.51
2022-11-07T16:52:30.907Z,100419.31
2022-11-07T16:55:02.019Z,100425.38
2022-11-07T16:57:38.554Z,100424.39
2022-11-07T17:00:15.870Z,100424.11
2022-11-07T17:02:46.749Z,100425.55
2022-11-07T17:05:18.731Z,100428.88
2022-11-07T17:07:51.149Z,100429.55
2022-11-07T17:10:21.833Z,100435.44
2022-11-07T17:12:52.539Z,100430.38
2022-11-07T17:15:23.163Z,100434.39
2022-11-07T17:17:58.786Z,100432.29
2022-11-07T17:20:50.417Z,100438.46
2022-11-07T17:23:28.546Z,100436.51
2022-11-07T17:26:02.450Z,100438.72
2022-11-07T17:28:33.617Z,100439.98
2022-11-07T17:31:13.868Z,100436.15
2022-11-07T17:33:44.757Z,100440.98
2022-11-07T17:36:37.139Z,100433.75
2022-11-07T17:39:12.014Z,100438.34
2022-11-07T17:41:43.770Z,100440.77
2022-11-07T17:44:15.220Z,100438.42
2022-11-07T17:46:51.294Z,100441.34
2022-11-07T17:49:23.779Z,100437.71
2022-11-07T17:51:55.086Z,100437.52
2022-11-07T17:54:29.554Z,100438.73
2022-11-07T17:57:00.428Z,100430.01
2022-11-07T17:59:31.085Z,100428.36
2022-11-07T18:02:01.918Z,100428.73
2022-11-07T18:04:32.631Z,100426.48
2022-11-07T18:07:03.321Z,100425.82
2022-11-07T18:09:34.022Z,100430.01
2022-11-07T18:12:04.803Z,100429.19
2022-11-07T18:14:35.811Z,100423.65
2022-11-07T18:17:07.023Z,100422.83
2022-11-07T18:19:37.947Z,100429.60
2022-11-07T18:22:08.544Z,100435.89
2022-11-07T18:24:39.201Z,100435.58
2022-11-07T18:27:10.738Z,100438.90
2022-11-07T18:29:43.060Z,100435.70
2022-11-07T18:32:14.394Z,100438.73
2022-11-07T18:34:45.227Z,100442.02
2022-11-07T18:37:16.059Z,100440.87
2022-11-07T18:39:46.904Z,100440.34
2022-11-07T18:42:17.503Z,100445.38
2022-11-07T18:44:48.151Z,100449.80
2022-11-07T18:47:18.811Z,100452.18
2022-11-07T18:49:54.013Z,100451.86
2022-11-07T18:52:27.349Z,100450.95
2022-11-07T18:54:58.001Z,100449.95
2022-11-07T18:57:28.649Z,100453.71
2022-11-07T18:59:59.269Z,100454.97
2022-11-07T19:02:33.515Z,100459.65
2022-11-07T19:05:04.325Z,100461.09
2022-11-07T19:07:35.636Z,100460.55
2022-11-07T19:10:07.250Z,100461.67
2022-11-07T19:12:38.052Z,100460.67
2022-11-07T19:15:11.104Z,100463.86
2022-11-07T19:17:41.747Z,100469.91
2022-11-07T19:20:13.648Z,100472.55
2022-11-07T19:22:44.245Z,100476.19
2022-11-07T19:25:18.782Z,100479.82
2022-11-07T19:27:50.602Z,100475.68
2022-11-07T19:30:21.314Z,100479.73
2022-11-07T19:32:52.090Z,100477.55
2022-11-07T19:35:22.689Z,100476.32
2022-11-07T19:37:53.282Z,100480.25
2022-11-07T19:40:23.953Z,100483.80
2022-11-07T19:42:56.279Z,100481.67
2022-11-07T19:45:27.779Z,100476.19
2022-11-07T19:47:58.498Z,100474.75
2022-11-07T19:50:29.107Z,100475.18
2022-11-07T19:52:59.810Z,100473.41
2022-11-07T19:55:30.456Z,100477.04
2022-11-07T19:58:01.085Z,100480.04
2022-11-07T20:00:31.834Z,100481.61
2022-11-07T20:03:02.791Z,100481.11
2022-11-07T20:05:34.421Z,100481.22
2022-11-07T20:08:05.523Z,100485.02
2022-11-07T20:10:36.524Z,100483.98
2022-11-07T20:13:07.160Z,100484.17
2022-11-07T20:15:39.732Z,100484.23
2022-11-07T20:18:10.340Z,100488.08
2022-11-07T20:20:40.973Z,100492.48
2022-11-07T20:23:11.579Z,100493.58
2022-11-07T20:25:44.472Z,100488.17
2022-11-07T20:28:15.051Z,100486.69
2022-11-07T20:30:45.767Z,100485.90
2022-11-07T20:33:16.733Z,100487.23
2022-11-07T20:35:48.038Z,100489.73
2022-11-07T20:38:18.654Z,100485.80
2022-11-07T20:40:49.267Z,100491.25
2022-11-07T20:43:20.075Z,100488.13
2022-11-07T20:45:50.990Z,100484.75
2022-11-07T20:48:22.573Z,100486.31
2022-11-07T20:50:53.182Z,100487.01
2022-11-07T20:53:23.793Z,100487.39
2022-11-07T20:55:54.411Z,100488.73
2022-11-07T20:58:25.007Z,100490.40
2022-11-07T21:00:55.663Z,100491.78
2022-11-07T21:03:26.319Z,100489.91
2022-11-07T21:05:57.476Z,100489.23
2022-11-07T21:08:30.675Z,100490.86
2022-11-07T21:11:03.786Z,100490.05
2022-11-07T21:13:34.442Z,100490.67
2022-11-07T21:16:06.998Z,100486.64
2022-11-07T21:18:39.322Z,100494.51
2022-11-07T21:21:12.365Z,100494.03
2022-11-07T21:23:43.907Z,100497.02
2022-11-07T21:26:18.790Z,100493.91
2022-11-07T21:28:49.596Z,100493.27
2022-11-07T21:31:23.912Z,100492.34
2022-11-07T21:33:54.746Z,100488.42
2022-11-07T21:36:27.181Z,100495.42
2022-11-07T21:38:58.536Z,100494.45
2022-11-07T21:41:29.767Z,100492.75
2022-11-07T21:44:00.638Z,100498.28
2022-11-07T21:46:34.317Z,100494.48
2022-11-07T21:49:06.281Z,100490.88
2022-11-07T21:51:37.580Z,100483.91
2022-11-07T21:54:08.879Z,100483.29
2022-11-07T21:56:40.642Z,100482.50
2022-11-07T21:59:12.767Z,100484.98
2022-11-07T22:01:44.048Z,100488.00
2022-11-07T22:04:15.910Z,100495.53
2022-11-07T22:06:47.415Z,100492.70
2022-11-07T22:09:19.846Z,100502.13
2022-11-07T22:11:51.039Z,100501.80
2022-11-07T22:14:23.546Z,100502.19
2022-11-07T22:16:56.008Z,100498.23
2022-11-07T22:19:28.005Z,100496.40
2022-11-07T22:21:58.609Z,100493.91
2022-11-07T22:24:29.223Z,100491.42
2022-11-07T22:27:01.089Z,100489.59
2022-11-07T22:29:31.894Z,100490.57
2022-11-07T22:33:41.931Z,100486.89
2022-11-07T22:36:14.508Z,100488.91
2022-11-07T22:38:45.852Z,100491.40
2022-11-07T22:41:18.508Z,100487.40
2022-11-07T22:43:49.661Z,100486.63
2022-11-07T22:46:23.103Z,100485.30
2022-11-07T22:48:54.629Z,100483.67
2022-11-07T22:51:27.648Z,100483.65
2022-11-07T22:54:03.146Z,100480.33
2022-11-07T22:56:35.335Z,100481.98
2022-11-07T22:59:07.099Z,100480.16
2022-11-07T23:01:39.900Z,100481.05
2022-11-07T23:04:14.531Z,100483.64
2022-11-07T23:06:46.057Z,100479.46
2022-11-07T23:09:17.681Z,100481.03
2022-11-07T23:11:48.987Z,100482.89
2022-11-07T23:14:21.798Z,100483.17
2022-11-07T23:16:53.881Z,100483.64
2022-11-07T23:19:26.767Z,100482.63
2022-11-07T23:21:58.217Z,100482.63
2022-11-07T23:24:28.873Z,100484.59
2022-11-07T23:26:59.852Z,100487.25
2022-11-07T23:29:30.529Z,100483.68
2022-11-07T23:32:01.507Z,100488.09
2022-11-07T23:34:33.209Z,100492.73
2022-11-07T23:37:04.316Z,100493.95
2022-11-07T23:39:34.937Z,100489.42
2022-11-07T23:42:05.607Z,100491.14
2022-11-07T23:44:57.393Z,100491.09
2022-11-07T23:47:45.818Z,100494.59
2022-11-07T23:50:33.953Z,100491.20
2022-11-07T23:53:25.056Z,100497.48
2022-11-07T23:55:55.790Z,100499.69
2022-11-07T23:58:44.464Z,100502.91
